Time;durP1;ratioP1;P1;durP2;ratioP2;P2;SDS_P1;SDS_P2;PMS_P1;PMS_P2;Temp;Humidity;BMP_temperature;BMP_pressure;BME280_temperature;BME280_humidity;BME280_pressure;Samples;Min_cycle;Max_cycle;Signal;HPM_P1;HPM_P2
2022/11/26 00:02:21;;;;;;;3.20;2.55;;;;;;;2.18;100.00;100010.53;1773238;79;21187;-79
2022/11/26 00:04:47;;;;;;;3.60;2.50;;;;;;;2.18;100.00;100010.53;1801840;78;21046;-77
2022/11/26 00:07:16;;;;;;;3.52;2.70;;;;;;;2.17;100.00;100012.81;1803283;79;20955;-79
2022/11/26 00:09:43;;;;;;;3.47;2.90;;;;;;;2.13;100.00;100013.49;1787756;78;21557;-79
2022/11/26 00:12:18;;;;;;;2.65;2.27;;;;;;;2.13;100.00;100013.49;1818207;78;21512;-80
2022/11/26 00:14:46;;;;;;;4.42;2.87;;;;;;;2.21;100.00;100009.50;1818939;78;21131;-80
2022/11/26 00:17:13;;;;;;;3.47;2.75;;;;;;;2.21;100.00;100009.50;1808667;78;21018;-81
2022/11/26 00:19:40;;;;;;;3.08;2.40;;;;;;;2.13;100.00;100014.80;1794651;79;21050;-80
2022/11/26 00:22:24;;;;;;;4.08;2.98;;;;;;;2.16;100.00;100011.98;1788487;78;21569;-81
2022/11/26 00:24:51;;;;;;;;;;;;;;;2.15;100.00;100017.33;1807726;78;21085;-78
2022/11/26 00:27:18;;;;;;;3.62;2.60;;;;;;;2.08;100.00;100014.75;1814056;78;21124;-77
2022/11/26 00:29:44;;;;;;;4.00;3.05;;;;;;;2.13;100.00;100021.36;1814759;78;21013;-77
2022/11/26 00:32:19;;;;;;;3.90;3.20;;;;;;;2.01;100.00;100022.67;1791201;78;21530;-77
2022/11/26 00:34:47;;;;;;;4.25;3.10;;;;;;;1.98;100.00;100020.28;1785131;78;21038;-77
2022/11/26 00:37:27;;;;;;;4.58;3.17;;;;;;;1.99;100.00;100014.94;1816430;78;21061;-78
2022/11/26 00:39:55;;;;;;;5.80;3.20;;;;;;;1.99;100.00;100014.94;1773076;78;21312;-76
2022/11/26 00:42:21;;;;;;;3.45;2.80;;;;;;;1.88;100.00;100013.05;1751284;79;21013;-77
2022/11/26 00:44:47;;;;;;;3.22;2.90;;;;;;;1.99;100.00;100021.49;1815611;78;20979;-77
2022/11/26 00:47:14;;;;;;;4.62;3.62;;;;;;;1.99;100.00;100021.49;1813644;78;20992;-77
2022/11/26 00:49:42;;;;;;;3.60;2.83;;;;;;;2.02;100.00;100019.13;1801477;78;21077;-77
2022/11/26 00:52:28;;;;;;;3.80;3.10;;;;;;;2.12;100.00;100019.66;1810024;78;21122;-79
2022/11/26 00:54:54;;;;;;;4.75;3.47;;;;;;;2.19;100.00;100017.95;1810870;78;21065;-78
2022/11/26 00:57:21;;;;;;;4.87;4.20;;;;;;;2.20;100.00;100018.30;1782397;78;21505;-80
2022/11/26 00:59:47;;;;;;;5.33;4.75;;;;;;;2.26;100.00;100020.48;1790139;78;21010;-79
2022/11/26 01:02:14;;;;;;;5.62;5.12;;;;;;;2.28;100.00;100012.89;1802134;78;21031;-79
2022/11/26 01:04:40;;;;;;;6.67;5.65;;;;;;;2.36;100.00;100021.05;1797047;78;21138;-81
2022/11/26 01:07:09;;;;;;;5.12;4.10;;;;;;;2.36;100.00;100021.05;1804087;78;21026;-81
2022/11/26 01:09:36;;;;;;;6.50;5.53;;;;;;;2.29;100.00;100021.59;1800860;78;21624;-79
2022/11/26 01:13:54;;;;;;;6.47;4.93;;;;;;;2.38;100.00;100016.16;1851784;76;22682;-78
2022/11/26 01:16:30;;;;;;;6.75;4.85;;;;;;;2.34;100.00;100007.70;1802094;77;20992;-78
2022/11/26 01:18:58;;;;;;;5.20;4.42;;;;;;;2.25;100.00;99994.75;1807394;78;21103;-78
2022/11/26 01:21:26;;;;;;;5.67;5.03;;;;;;;2.21;100.00;100002.95;1800378;77;21531;-76
2022/11/26 01:23:52;;;;;;;7.30;4.75;;;;;;;2.13;100.00;100003.01;1802247;77;21080;-76
2022/11/26 01:26:23;;;;;;;5.92;4.58;;;;;;;2.00;100.00;100003.98;1826644;78;21022;-77
2022/11/26 01:28:50;;;;;;;6.15;4.40;;;;;;;2.00;100.00;100006.12;1817381;77;20966;-76
2022/11/26 01:31:20;;;;;;;6.17;4.58;;;;;;;2.00;100.00;100005.29;1818545;77;21087;-78
2022/11/26 01:33:48;;;;;;;6.60;4.95;;;;;;;2.04;100.00;100002.33;1819472;77;20988;-78
2022/11/26 01:36:28;;;;;;;7.95;6.28;;;;;;;2.07;100.00;99999.99;1819273;77;22035;-77
2022/11/26 01:39:02;;;;;;;8.43;5.62;;;;;;;2.07;100.00;99999.99;1811813;77;21033;-78
2022/11/26 01:42:11;;;;;;;7.47;5.30;;;;;;;2.02;100.00;100009.47;1818414;77;21555;-76
2022/11/26 01:44:38;;;;;;;6.37;5.30;;;;;;;2.10;100.00;100008.45;1768201;80;21276;-80
2022/11/26 01:47:26;;;;;;;5.80;4.83;;;;;;;2.08;100.00;100013.45;1771546;79;21033;-78
2022/11/26 01:50:31;;;;;;;7.05;4.80;;;;;;;2.06;100.00;100006.99;1748124;81;21076;-78
2022/11/26 01:53:09;;;;;;;6.58;5.50;;;;;;;2.06;100.00;100006.99;1761254;79;21644;-78
2022/11/26 01:55:52;;;;;;;8.68;5.53;;;;;;;2.03;100.00;100009.84;1735451;80;21069;-77
2022/11/26 01:58:26;;;;;;;8.10;5.62;;;;;;;2.05;100.00;100016.27;1756964;79;21484;-76
2022/11/26 02:00:52;;;;;;;8.03;5.33;;;;;;;2.10;100.00;100015.00;1763986;81;21040;-76
2022/11/26 02:03:20;;;;;;;7.00;5.20;;;;;;;2.12;100.00;100017.05;1758554;80;21056;-78
2022/11/26 02:05:57;;;;;;;7.03;5.22;;;;;;;2.09;100.00;100018.59;1753255;79;21007;-77
2022/11/26 02:08:25;;;;;;;6.60;5.35;;;;;;;2.13;100.00;100023.98;1760163;78;21040;-77
2022/11/26 02:10:52;;;;;;;6.72;5.17;;;;;;;2.17;100.00;100033.78;1767182;79;21142;-75
2022/11/26 02:13:18;;;;;;;6.72;5.12;;;;;;;2.17;100.00;100020.67;1764890;79;21556;-76
2022/11/26 02:16:09;;;;;;;7.15;5.72;;;;;;;2.17;100.00;100020.67;1772122;79;21099;-77
2022/11/26 02:18:37;;;;;;;5.72;4.90;;;;;;;2.14;100.00;100026.98;1772264;79;21533;-79
2022/11/26 02:21:08;;;;;;;5.42;4.55;;;;;;;2.20;100.00;100031.41;1749559;80;21085;-78
2022/11/26 02:24:00;;;;;;;6.97;5.60;;;;;;;2.20;100.00;100031.41;1805798;79;21531;-77
2022/11/26 02:26:48;;;;;;;6.90;4.72;;;;;;;2.23;100.00;100033.83;1777110;80;20995;-79
2022/11/26 02:29:40;;;;;;;6.05;4.35;;;;;;;2.13;100.00;100031.84;1753072;79;21011;-80
2022/11/26 02:32:12;;;;;;;5.85;4.60;;;;;;;2.20;100.00;100043.20;1766787;79;21100;-79
2022/11/26 02:34:56;;;;;;;6.70;4.87;;;;;;;2.14;100.00;100048.39;1754716;81;21069;-78
2022/11/26 02:37:37;;;;;;;4.80;3.92;;;;;;;2.14;100.00;100048.39;1768366;79;21052;-79
2022/11/26 02:40:07;;;;;;;5.70;4.22;;;;;;;2.21;100.00;100044.89;1766406;80;20997;-75
2022/11/26 02:42:35;;;;;;;6.90;5.22;;;;;;;2.23;100.00;100045.62;1762398;79;21017;-78
2022/11/26 02:45:12;;;;;;;5.37;4.20;;;;;;;2.19;100.00;100050.23;1762032;80;21512;-76
2022/11/26 02:47:40;;;;;;;5.65;4.92;;;;;;;2.26;100.00;100053.25;1765881;80;21033;-75
2022/11/26 02:50:11;;;;;;;6.37;4.80;;;;;;;2.26;100.00;100061.12;1751953;80;21146;-76
2022/11/26 02:52:39;;;;;;;5.30;4.15;;;;;;;2.15;100.00;100060.09;1745138;82;21005;-79
2022/11/26 02:55:06;;;;;;;6.45;4.40;;;;;;;2.18;100.00;100066.89;1745535;80;21041;-80
2022/11/26 02:57:35;;;;;;;5.62;4.78;;;;;;;2.19;100.00;100073.00;1757875;79;21013;-79
2022/11/26 03:00:03;;;;;;;5.85;4.53;;;;;;;2.19;100.00;100073.00;1772747;79;21544;-79
2022/11/26 03:02:46;;;;;;;5.20;4.33;;;;;;;2.22;100.00;100072.77;1761902;79;21155;-80
2022/11/26 03:05:13;;;;;;;5.03;4.30;;;;;;;2.23;100.00;100075.77;1763136;78;21017;-79
2022/11/26 03:07:39;;;;;;;7.22;4.92;;;;;;;2.23;100.00;100075.77;1762248;79;21533;-78
2022/11/26 03:10:07;;;;;;;6.72;4.58;;;;;;;2.30;100.00;100079.17;1765488;78;22095;-80
2022/11/26 03:12:34;;;;;;;7.40;5.47;;;;;;;2.33;100.00;100080.25;1788344;78;21121;-80
2022/11/26 03:15:00;;;;;;;6.33;4.80;;;;;;;2.36;100.00;100085.77;1796265;78;21744;-77
2022/11/26 03:17:27;;;;;;;9.75;6.03;;;;;;;2.36;100.00;100085.77;1792117;80;21041;-78
2022/11/26 03:19:53;;;;;;;8.45;6.08;;;;;;;2.33;100.00;100084.18;1792321;80;20990;-78
2022/11/26 03:22:20;;;;;;;6.72;5.95;;;;;;;2.24;100.00;100090.09;1790120;78;21651;-79
2022/11/26 03:24:47;;;;;;;6.62;5.53;;;;;;;2.27;100.00;100079.84;1825717;78;21100;-79
2022/11/26 03:27:13;;;;;;;6.58;5.72;;;;;;;2.28;100.00;100082.38;1790067;78;21504;-79
2022/11/26 03:29:40;;;;;;;6.35;5.28;;;;;;;2.22;100.00;100080.19;1760023;81;21097;-80
2022/11/26 03:32:06;;;;;;;4.80;3.92;;;;;;;2.22;100.00;100076.25;1763387;80;21056;-76
2022/11/26 03:34:33;;;;;;;5.58;4.30;;;;;;;2.26;100.00;100080.78;1792183;78;21045;-78
2022/11/26 03:36:59;;;;;;;6.42;4.65;;;;;;;2.21;100.00;100077.18;1791938;78;21045;-79
2022/11/26 03:39:26;;;;;;;7.00;4.92;;;;;;;2.23;100.00;100083.15;1789744;78;21129;-77
2022/11/26 03:41:52;;;;;;;7.00;4.70;;;;;;;2.23;100.00;100083.15;1788423;78;21069;-80
2022/11/26 03:44:18;;;;;;;6.42;4.28;;;;;;;2.21;100.00;100077.66;1806764;78;21025;-79
2022/11/26 03:46:45;;;;;;;6.50;5.30;;;;;;;2.26;100.00;100084.71;1795343;80;20993;-76
2022/11/26 03:49:11;;;;;;;7.12;5.10;;;;;;;2.25;100.00;100086.50;1794405;80;21018;-77
2022/11/26 03:51:39;;;;;;;6.47;4.75;;;;;;;2.15;100.00;100092.86;1774091;80;21150;-78
2022/11/26 03:54:06;;;;;;;7.60;4.83;;;;;;;2.20;100.00;100095.63;1799778;79;21076;-77
2022/11/26 03:56:32;;;;;;;6.22;4.80;;;;;;;2.26;100.00;100096.52;1788215;78;21563;-78
2022/11/26 03:58:59;;;;;;;5.25;4.08;;;;;;;2.29;100.00;100093.20;1790975;78;21701;-80
2022/11/26 04:01:25;;;;;;;6.55;4.85;;;;;;;2.29;100.00;100093.20;1766512;79;20978;-76
2022/11/26 04:03:51;;;;;;;4.85;3.42;;;;;;;2.32;100.00;100096.11;1764422;79;21493;-78
2022/11/26 04:06:18;;;;;;;4.40;3.12;;;;;;;2.28;100.00;100098.55;1763121;79;21631;-77
2022/11/26 04:08:44;;;;;;;3.30;2.80;;;;;;;2.27;100.00;100095.58;1764855;79;21519;-78
2022/11/26 04:11:11;;;;;;;3.67;2.87;;;;;;;2.29;100.00;100091.06;1766391;79;21010;-81
2022/11/26 04:13:39;;;;;;;5.05;2.60;;;;;;;2.32;100.00;100105.28;1763532;79;20982;-81
2022/11/26 04:16:06;;;;;;;3.40;2.80;;;;;;;2.32;100.00;100105.28;1778663;80;21135;-79
2022/11/26 04:18:32;;;;;;;3.60;2.70;;;;;;;2.36;100.00;100106.75;1763547;79;21016;-79
2022/11/26 04:20:59;;;;;;;2.75;2.22;;;;;;;2.30;100.00;100106.70;1820676;78;21107;-81
2022/11/26 04:23:26;;;;;;;4.03;2.65;;;;;;;2.37;100.00;100103.16;1816317;78;21039;-81
2022/11/26 04:25:52;;;;;;;4.72;3.47;;;;;;;2.33;100.00;100107.78;1752963;79;21009;-78
2022/11/26 04:28:21;;;;;;;4.45;2.95;;;;;;;2.33;100.00;100107.78;1770249;79;21151;-79
2022/11/26 04:30:47;;;;;;;4.08;3.12;;;;;;;2.30;100.00;100106.70;1778425;79;21010;-80
2022/11/26 04:33:13;;;;;;;4.78;3.70;;;;;;;2.22;100.00;100106.84;1763176;80;21018;-77
2022/11/26 04:35:42;;;;;;;5.12;3.47;;;;;;;2.22;100.00;100106.84;1772969;80;21515;-78
2022/11/26 04:38:08;;;;;;;4.90;3.70;;;;;;;2.22;100.00;100109.47;1774690;80;21020;-80
2022/11/26 04:40:35;;;;;;;5.67;4.05;;;;;;;2.22;100.00;100109.47;1769528;78;21256;-80
2022/11/26 04:43:01;;;;;;;5.80;4.65;;;;;;;2.15;100.00;100113.83;1765494;79;20998;-78
2022/11/26 04:45:28;;;;;;;8.23;7.42;;;;;;;2.18;100.00;100118.01;1768390;79;21004;-79
2022/11/26 04:47:54;;;;;;;7.62;6.12;;;;;;;2.17;100.00;100117.66;1771260;79;21175;-82
2022/11/26 04:50:21;;;;;;;7.45;6.47;;;;;;;2.12;100.00;100128.44;1755638;80;21037;-80
2022/11/26 04:52:48;;;;;;;7.50;6.47;;;;;;;2.25;100.00;100125.83;1751073;80;21485;-79
2022/11/26 04:55:16;;;;;;;5.17;3.85;;;;;;;2.25;100.00;100125.83;1760855;79;21088;-83
2022/11/26 04:57:42;;;;;;;5.90;3.77;;;;;;;2.18;100.00;100131.11;1767407;79;21545;-80
2022/11/26 05:00:11;;;;;;;4.12;3.70;;;;;;;2.16;100.00;100133.87;1773364;80;21053;-80
2022/11/26 05:02:38;;;;;;;3.75;2.98;;;;;;;2.09;100.00;100133.91;1782471;79;21284;-77
2022/11/26 05:05:05;;;;;;;4.47;3.27;;;;;;;2.09;100.00;100133.91;1774433;80;21600;-80
2022/11/26 05:07:33;;;;;;;4.05;3.22;;;;;;;2.12;100.00;100136.30;1782992;79;21063;-78
2022/11/26 05:09:59;;;;;;;4.25;3.10;;;;;;;2.12;100.00;100142.02;1761064;80;21111;-78
2022/11/26 05:12:25;;;;;;;3.87;2.83;;;;;;;2.06;100.00;100146.38;1765001;79;21470;-78
2022/11/26 05:14:52;;;;;;;3.55;2.70;;;;;;;2.13;100.00;100149.79;1753520;80;21457;-78
2022/11/26 05:17:18;;;;;;;4.37;2.70;;;;;;;2.15;100.00;100141.34;1774876;79;21508;-78
2022/11/26 05:19:46;;;;;;;4.70;2.72;;;;;;;2.12;100.00;100145.47;1763920;79;21012;-79
2022/11/26 05:22:13;;;;;;;5.00;3.45;;;;;;;2.23;100.00;100147.38;1763235;80;21017;-76
2022/11/26 05:24:40;;;;;;;5.25;3.60;;;;;;;2.33;100.00;100149.73;1758669;79;21022;-75
2022/11/26 05:27:07;;;;;;;4.72;3.45;;;;;;;2.33;100.00;100155.45;1778500;80;21049;-76
2022/11/26 05:29:34;;;;;;;5.95;3.58;;;;;;;2.33;100.00;100159.39;1755995;81;21148;-76
2022/11/26 05:32:00;;;;;;;5.67;3.40;;;;;;;2.26;100.00;100158.98;1755563;81;21489;-76
2022/11/26 05:34:27;;;;;;;4.67;3.95;;;;;;;2.17;100.00;100166.16;1772271;80;21057;-78
2022/11/26 05:36:53;;;;;;;4.00;3.42;;;;;;;2.21;100.00;100171.55;1744075;80;21754;-77
2022/11/26 05:39:19;;;;;;;4.87;3.72;;;;;;;2.21;100.00;100170.72;1760646;79;21071;-76
2022/11/26 05:41:47;;;;;;;3.72;3.05;;;;;;;2.15;100.00;100179.84;1766189;79;21277;-75
2022/11/26 05:44:13;;;;;;;4.33;3.33;;;;;;;2.30;100.00;100172.72;1768348;79;21040;-76
2022/11/26 05:46:41;;;;;;;4.92;4.00;;;;;;;2.30;100.00;100172.72;1765231;79;21135;-77
2022/11/26 05:49:08;;;;;;;5.58;3.95;;;;;;;2.23;100.00;100173.59;1762555;79;21130;-77
2022/11/26 05:51:34;;;;;;;4.60;3.77;;;;;;;2.24;100.00;100177.05;1767145;79;21068;-78
2022/11/26 05:54:01;;;;;;;5.85;3.33;;;;;;;2.05;100.00;100184.00;1772547;79;21182;-76
2022/11/26 05:56:27;;;;;;;5.40;3.60;;;;;;;2.02;100.00;100183.73;1759185;79;21039;-75
2022/11/26 05:58:53;;;;;;;4.50;3.27;;;;;;;2.03;100.00;100186.74;1781274;79;21028;-75
2022/11/26 06:01:20;;;;;;;5.53;4.00;;;;;;;2.03;100.00;100186.74;1768940;79;21614;-74
2022/11/26 06:03:46;;;;;;;5.87;3.92;;;;;;;1.96;100.00;100200.70;1770615;80;21052;-75
2022/11/26 06:06:13;;;;;;;5.70;3.75;;;;;;;1.96;100.00;100200.70;1764139;79;21050;-78
2022/11/26 06:08:41;;;;;;;6.05;3.62;;;;;;;1.93;100.00;100196.13;1765192;80;21066;-74
2022/11/26 06:11:13;;;;;;;4.97;3.35;;;;;;;1.93;100.00;100196.13;1771930;80;21085;-75
2022/11/26 06:13:39;;;;;;;4.42;3.27;;;;;;;1.99;100.00;100200.13;1780400;80;21451;-75
2022/11/26 06:16:06;;;;;;;6.08;4.15;;;;;;;2.07;100.00;100209.66;1775843;80;21021;-76
2022/11/26 06:18:35;;;;;;;5.35;3.42;;;;;;;2.19;100.00;100204.06;1754087;80;21492;-76
2022/11/26 06:21:03;;;;;;;5.15;3.58;;;;;;;2.19;100.00;100204.06;1756853;79;21694;-77
2022/11/26 06:23:31;;;;;;;4.62;3.00;;;;;;;2.19;100.00;100212.77;1791727;79;21017;-76
2022/11/26 06:25:58;;;;;;;4.03;3.12;;;;;;;2.19;100.00;100212.77;1776304;80;21096;-75
2022/11/26 06:28:26;;;;;;;5.78;3.65;;;;;;;2.26;100.00;100213.17;1767867;80;21014;-73
2022/11/26 06:30:52;;;;;;;4.03;2.83;;;;;;;2.26;100.00;100213.17;1784834;80;21152;-75
2022/11/26 06:33:19;;;;;;;4.72;3.50;;;;;;;2.21;100.00;100213.97;1790899;80;21026;-75
2022/11/26 06:35:45;;;;;;;4.75;3.08;;;;;;;2.22;100.00;100210.39;1763501;80;21101;-74
2022/11/26 06:38:11;;;;;;;4.12;2.90;;;;;;;2.15;100.00;100216.53;1765717;79;21089;-76
2022/11/26 06:40:38;;;;;;;5.55;3.62;;;;;;;2.15;100.00;100216.53;1764617;80;21010;-75
2022/11/26 06:43:04;;;;;;;5.60;3.62;;;;;;;2.12;100.00;100220.17;1778613;79;21043;-75
2022/11/26 06:45:31;;;;;;;5.45;3.77;;;;;;;2.08;100.00;100220.02;1765050;79;21070;-75
2022/11/26 06:47:58;;;;;;;6.47;4.53;;;;;;;2.02;100.00;100224.36;1713939;81;21092;-74
2022/11/26 06:50:24;;;;;;;7.78;5.03;;;;;;;2.06;100.00;100226.31;1761950;79;21061;-77
2022/11/26 06:52:52;;;;;;;6.80;5.40;;;;;;;1.97;100.00;100229.08;1759875;80;21053;-76
2022/11/26 06:55:19;;;;;;;8.50;6.50;;;;;;;1.97;100.00;100229.08;1761332;79;21336;-76
2022/11/26 06:57:50;;;;;;;9.18;5.75;;;;;;;2.02;100.00;100228.29;1784581;78;21077;-76
2022/11/26 07:00:17;;;;;;;7.12;5.10;;;;;;;2.05;100.00;100229.41;1764753;80;21004;-74
2022/11/26 07:02:44;;;;;;;8.25;4.87;;;;;;;2.06;100.00;100232.38;1770163;79;21077;-76
2022/11/26 07:05:10;;;;;;;6.60;4.70;;;;;;;2.06;100.00;100232.38;1767289;79;21004;-76
2022/11/26 07:07:38;;;;;;;8.13;5.53;;;;;;;2.09;100.00;100238.75;1760528;80;21701;-76
2022/11/26 07:10:06;;;;;;;8.33;5.70;;;;;;;2.00;100.00;100241.97;1826943;78;21028;-74
2022/11/26 07:12:32;;;;;;;7.92;5.53;;;;;;;2.04;100.00;100240.82;1821463;78;21020;-76
2022/11/26 07:14:59;;;;;;;9.20;6.17;;;;;;;2.08;100.00;100239.67;1793745;79;21030;-75
2022/11/26 07:17:27;;;;;;;8.40;5.10;;;;;;;2.01;100.00;100247.59;1794212;78;21025;-75
2022/11/26 07:19:54;;;;;;;8.13;5.30;;;;;;;2.01;100.00;100251.97;1758403;80;22421;-76
2022/11/26 07:22:20;;;;;;;8.53;6.05;;;;;;;2.01;100.00;100251.97;1793589;79;20982;-75
2022/11/26 07:24:47;;;;;;;10.72;5.97;;;;;;;1.97;100.00;100246.12;1795252;80;21548;-74
2022/11/26 07:27:14;;;;;;;8.18;4.95;;;;;;;1.87;100.00;100244.54;1814649;78;21481;-74
2022/11/26 07:29:40;;;;;;;8.20;5.58;;;;;;;1.91;100.00;100248.67;1813881;78;21029;-75
2022/11/26 07:32:07;;;;;;;12.75;6.00;;;;;;;1.92;100.00;100248.19;1793584;79;21820;-75
2022/11/26 07:34:33;;;;;;;9.85;5.70;;;;;;;1.85;100.00;100254.28;1817619;78;21009;-75
2022/11/26 07:37:00;;;;;;;8.83;5.62;;;;;;;1.93;100.00;100255.95;1794190;78;21551;-74
2022/11/26 07:39:26;;;;;;;8.53;5.92;;;;;;;2.02;100.00;100251.88;1773512;78;21071;-75
2022/11/26 07:41:53;;;;;;;7.67;5.23;;;;;;;1.98;100.00;100247.78;1806268;78;21045;-75
2022/11/26 07:44:19;;;;;;;8.60;5.87;;;;;;;2.09;100.00;100245.78;1775173;80;21216;-76
2022/11/26 07:46:47;;;;;;;8.85;5.25;;;;;;;2.00;100.00;100252.93;1762020;80;21055;-76
2022/11/26 07:49:14;;;;;;;8.65;5.72;;;;;;;2.00;100.00;100252.93;1766866;80;21017;-74
2022/11/26 07:51:40;;;;;;;9.55;5.42;;;;;;;1.99;100.00;100251.23;1784584;78;21065;-75
2022/11/26 07:54:07;;;;;;;11.55;5.80;;;;;;;1.99;100.00;100256.03;1782440;78;21078;-74
2022/11/26 07:56:35;;;;;;;9.25;5.92;;;;;;;1.94;100.00;100252.86;1802016;78;21827;-78
2022/11/26 07:59:01;;;;;;;10.53;6.28;;;;;;;2.02;100.00;100266.29;1743615;80;21028;-77
2022/11/26 08:01:29;;;;;;;9.25;6.08;;;;;;;1.93;100.00;100267.75;1768139;79;21082;-77
2022/11/26 08:03:56;;;;;;;10.68;5.87;;;;;;;2.00;100.00;100264.72;1770354;80;21482;-74
2022/11/26 08:06:25;;;;;;;8.70;5.90;;;;;;;2.00;100.00;100264.72;1773656;79;21114;-75
2022/11/26 08:08:54;;;;;;;9.58;6.33;;;;;;;2.04;100.00;100276.20;1772585;79;21014;-78
2022/11/26 08:11:27;;;;;;;9.33;6.40;;;;;;;1.94;100.00;100273.82;1769163;79;21061;-75
2022/11/26 08:14:03;;;;;;;10.23;6.47;;;;;;;1.95;100.00;100274.17;1779596;78;21063;-76
2022/11/26 08:16:30;;;;;;;8.25;5.58;;;;;;;1.95;100.00;100274.17;1773142;80;21032;-78
2022/11/26 08:18:59;;;;;;;8.25;5.17;;;;;;;2.01;100.00;100275.11;1784855;78;21068;-78
2022/11/26 08:21:25;;;;;;;7.22;5.33;;;;;;;2.10;100.00;100281.03;1793671;78;21809;-77
2022/11/26 08:23:53;;;;;;;7.97;5.25;;;;;;;2.10;100.00;100281.03;1784895;78;21049;-78
2022/11/26 08:26:20;;;;;;;7.22;4.78;;;;;;;2.08;100.00;100276.37;1761586;80;21036;-77
2022/11/26 08:28:47;;;;;;;8.00;5.25;;;;;;;2.07;100.00;100276.02;1759981;80;21523;-78
2022/11/26 08:31:15;;;;;;;7.30;5.78;;;;;;;2.18;100.00;100275.77;1789323;78;21120;-76
2022/11/26 08:33:41;;;;;;;9.53;6.65;;;;;;;2.11;100.00;100281.90;1807685;78;21256;-78
2022/11/26 08:36:08;;;;;;;8.88;5.62;;;;;;;2.11;100.00;100281.90;1771996;78;21080;-77
2022/11/26 08:38:35;;;;;;;9.23;6.37;;;;;;;2.28;100.00;100288.63;1809897;78;21593;-76
2022/11/26 08:41:08;;;;;;;8.45;5.62;;;;;;;2.24;100.00;100293.27;1810102;78;21524;-75
2022/11/26 08:43:35;;;;;;;10.10;6.40;;;;;;;2.24;100.00;100293.27;1801643;78;20986;-75
2022/11/26 08:46:02;;;;;;;10.00;7.10;;;;;;;2.31;100.00;100289.27;1791766;78;21853;-78
2022/11/26 08:48:29;;;;;;;9.70;6.60;;;;;;;2.33;100.00;100291.80;1805501;78;21460;-76
2022/11/26 08:51:00;;;;;;;9.15;6.30;;;;;;;2.24;100.00;100292.40;1810508;78;21076;-80
2022/11/26 08:53:27;;;;;;;9.95;7.30;;;;;;;2.27;100.00;100293.04;1791778;79;21048;-78
2022/11/26 08:56:00;;;;;;;10.50;6.92;;;;;;;2.34;100.00;100294.80;1794082;79;21054;-77
2022/11/26 08:58:27;;;;;;;11.48;7.40;;;;;;;2.31;100.00;100293.68;1780403;79;21010;-77
2022/11/26 09:00:54;;;;;;;9.18;6.90;;;;;;;2.35;100.00;100294.67;1772892;80;21016;-79
2022/11/26 09:03:20;;;;;;;12.33;6.83;;;;;;;2.37;100.00;100289.34;1761315;80;21014;-78
2022/11/26 09:05:48;;;;;;;9.98;6.87;;;;;;;2.30;100.00;100287.61;1778805;80;21033;-79
2022/11/26 09:08:15;;;;;;;8.90;5.62;;;;;;;2.34;100.00;100294.80;1768188;81;20997;-79
2022/11/26 09:10:41;;;;;;;9.55;6.50;;;;;;;2.35;100.00;100297.78;1759393;80;21137;-77
2022/11/26 09:13:08;;;;;;;7.87;5.72;;;;;;;2.24;100.00;100293.71;1764897;80;21557;-78
2022/11/26 09:15:36;;;;;;;8.83;5.87;;;;;;;2.22;100.00;100296.91;1770678;80;21532;-77
2022/11/26 09:18:03;;;;;;;10.03;6.70;;;;;;;2.21;100.00;100295.24;1766670;80;21136;-78
2022/11/26 09:20:30;;;;;;;9.60;6.08;;;;;;;2.15;100.00;100301.25;1779253;80;21549;-77
2022/11/26 09:22:56;;;;;;;18.48;7.72;;;;;;;2.21;100.00;100301.80;1774106;80;21807;-77
2022/11/26 09:25:23;;;;;;;10.15;7.45;;;;;;;2.30;100.00;100304.65;1739464;80;21017;-75
2022/11/26 09:27:50;;;;;;;10.68;7.62;;;;;;;2.26;100.00;100312.80;1773534;80;21068;-76
2022/11/26 09:30:18;;;;;;;10.55;7.30;;;;;;;2.35;100.00;100313.03;1759392;81;21528;-77
2022/11/26 09:32:44;;;;;;;12.78;8.18;;;;;;;2.35;100.00;100313.03;1769962;80;21021;-76
2022/11/26 09:35:11;;;;;;;9.15;6.83;;;;;;;2.30;100.00;100312.52;1758175;80;21154;-77
2022/11/26 09:37:39;;;;;;;11.70;7.75;;;;;;;2.36;100.00;100317.83;1758559;80;21029;-76
2022/11/26 09:40:08;;;;;;;10.23;7.20;;;;;;;2.36;100.00;100346.67;1763187;80;21652;-77
2022/11/26 09:42:59;;;;;;;11.78;7.60;;;;;;;2.23;100.00;100321.72;1752046;80;21049;-77
2022/11/26 09:45:40;;;;;;;9.63;6.40;;;;;;;2.23;100.00;100321.72;1751359;81;21033;-77
2022/11/26 09:48:11;;;;;;;10.30;6.33;;;;;;;2.16;100.00;100318.67;1795336;79;21578;-75
2022/11/26 09:50:39;;;;;;;12.25;6.45;;;;;;;2.09;100.00;100322.63;1788635;80;21101;-75
2022/11/26 09:53:17;;;;;;;6.03;4.95;;;;;;;2.16;100.00;100327.84;1780165;80;21001;-75
2022/11/26 09:55:47;;;;;;;9.93;6.08;;;;;;;2.21;100.00;100331.94;1768767;80;21072;-77
2022/11/26 09:58:22;;;;;;;7.55;4.95;;;;;;;2.06;100.00;100329.36;1775461;79;20977;-76
2022/11/26 10:00:51;;;;;;;9.30;6.15;;;;;;;2.10;100.00;100334.77;1790887;79;21636;-77
2022/11/26 10:03:30;;;;;;;6.92;5.12;;;;;;;2.11;100.00;100336.47;1774841;80;21515;-74
2022/11/26 10:06:24;;;;;;;6.15;4.28;;;;;;;2.08;100.00;100339.27;1784203;80;21057;-76
2022/11/26 10:09:12;;;;;;;6.47;4.78;;;;;;;2.12;100.00;100336.82;1776132;79;20994;-75
2022/11/26 10:12:18;;;;;;;5.90;3.95;;;;;;;2.19;100.00;100343.00;1796938;79;21461;-75
2022/11/26 10:15:14;;;;;;;7.28;4.60;;;;;;;2.19;100.00;100343.83;1822739;77;21149;-79
2022/11/26 10:18:08;;;;;;;9.18;5.12;;;;;;;2.22;100.00;100350.65;1825732;78;21028;-79
2022/11/26 10:21:01;;;;;;;7.62;4.90;;;;;;;2.22;100.00;100350.65;1825461;78;21036;-79
2022/11/26 10:23:50;;;;;;;8.00;4.95;;;;;;;2.11;100.00;100354.81;1824266;77;21147;-75
2022/11/26 10:26:36;;;;;;;7.40;5.10;;;;;;;2.18;100.00;100353.10;1798772;78;21018;-79
2022/11/26 10:29:23;;;;;;;7.95;5.50;;;;;;;2.14;100.00;100354.63;1807342;77;21271;-79
2022/11/26 10:31:53;;;;;;;6.85;5.10;;;;;;;2.06;100.00;100358.66;1827052;77;21079;-78
2022/11/26 10:34:31;;;;;;;7.65;5.87;;;;;;;2.07;100.00;100356.44;1824904;78;21515;-80
2022/11/26 10:36:58;;;;;;;7.17;4.87;;;;;;;2.12;100.00;100364.34;1840696;77;21008;-80
2022/11/26 10:39:26;;;;;;;7.30;5.35;;;;;;;2.14;100.00;100359.00;1854971;77;20993;-79
2022/11/26 10:41:53;;;;;;;6.90;5.58;;;;;;;2.23;100.00;100362.35;1834026;77;21075;-77
2022/11/26 10:44:38;;;;;;;6.42;5.05;;;;;;;2.19;100.00;100360.04;1803587;78;21017;-77
2022/11/26 10:47:23;;;;;;;6.55;4.87;;;;;;;2.07;100.00;100358.58;1821597;78;20974;-77
2022/11/26 10:49:52;;;;;;;6.12;5.10;;;;;;;2.08;100.00;100361.55;1832615;77;20990;-80
2022/11/26 10:52:27;;;;;;;4.80;3.60;;;;;;;2.14;100.00;100365.56;1816520;77;21072;-79
2022/11/26 10:55:19;;;;;;;6.28;4.17;;;;;;;2.20;100.00;100372.19;1800169;79;21061;-76
2022/11/26 10:57:54;;;;;;;7.10;4.67;;;;;;;2.20;100.00;100372.19;1826918;77;21052;-75
2022/11/26 11:00:38;;;;;;;4.65;3.80;;;;;;;2.21;100.00;100375.20;1814400;77;21279;-76
2022/11/26 11:03:12;;;;;;;5.25;4.30;;;;;;;2.16;100.00;100372.41;1804875;77;21598;-77
2022/11/26 11:05:39;;;;;;;5.55;4.58;;;;;;;2.20;100.00;100376.13;1824237;77;21049;-75
2022/11/26 11:08:13;;;;;;;5.72;4.83;;;;;;;2.16;100.00;100373.72;1826981;77;21211;-76
2022/11/26 11:10:53;;;;;;;5.42;4.30;;;;;;;2.11;100.00;100371.84;1830208;77;21549;-78
2022/11/26 11:13:20;;;;;;;6.35;5.12;;;;;;;2.12;100.00;100381.38;1826334;77;21084;-79
2022/11/26 11:15:46;;;;;;;6.03;5.05;;;;;;;2.03;100.00;100387.23;1828069;77;21032;-78
2022/11/26 11:18:18;;;;;;;7.33;5.47;;;;;;;2.03;100.00;100387.23;1828762;77;21596;-79
2022/11/26 11:20:57;;;;;;;7.53;5.75;;;;;;;2.13;100.00;100392.25;1827899;78;21155;-80
2022/11/26 11:23:36;;;;;;;8.60;6.47;;;;;;;2.23;100.00;100392.50;1827775;77;20986;-79
2022/11/26 11:26:08;;;;;;;6.22;5.17;;;;;;;2.27;100.00;100399.22;1811730;78;21049;-79
2022/11/26 11:28:41;;;;;;;9.38;6.25;;;;;;;2.27;100.00;100399.22;1825457;77;21024;-78
2022/11/26 11:31:15;;;;;;;7.85;5.85;;;;;;;2.12;100.00;100394.48;1820488;77;21089;-78
2022/11/26 11:33:42;;;;;;;6.92;5.50;;;;;;;2.12;100.00;100394.48;1827629;77;21213;-77
2022/11/26 11:36:21;;;;;;;7.40;5.55;;;;;;;2.13;100.00;100388.31;1831531;78;20970;-77
2022/11/26 11:38:59;;;;;;;6.45;5.62;;;;;;;2.13;100.00;100388.31;1831392;77;21044;-78
2022/11/26 11:41:46;;;;;;;6.40;4.97;;;;;;;2.02;100.00;100397.81;1847417;77;21070;-78